AAL1220 KRDU-KMIA
Flight info
| Callsign | AAL1220 |
|---|---|
| Flight time | N/A |
| Altitude | 41000 |
| Route | ROZBO5 ROZBO DCT GARIC/N0470F400 DCT SPOOF Y313 HOAGG BNFSH3 |
| Aircraft | B772/H-SDE2E3FGHIJ5LORVWXY/LB1D1 |
Departure
| Time | 2026-05-06 23:46 |
|---|---|
| Airport | Raleigh-Durham International Airport (KRDU) |
Arrival
| Time | N/A |
|---|---|
| Airport | Miami International Airport (KMIA) |
| Time | Latitude | Longitude | Altitude | Speed | Heading |
|---|---|---|---|---|---|
| 2026-05-06 22:58 | 35.87932 | -78.79049 | 398 ft | 0 kts | 286° |
| 2026-05-06 23:30 | 35.87929 | -78.79035 | 399 ft | 4 kts | 299° |
| 2026-05-06 23:30 | 35.87913 | -78.79018 | 400 ft | 4 kts | 7° |
| 2026-05-06 23:30 | 35.87890 | -78.79031 | 396 ft | 4 kts | 39° |
| 2026-05-06 23:31 | 35.87878 | -78.79044 | 393 ft | 2 kts | 45° |
| 2026-05-06 23:37 | 35.87880 | -78.79041 | 393 ft | 3 kts | 45° |
| 2026-05-06 23:38 | 35.87896 | -78.79022 | 398 ft | 5 kts | 43° |
| 2026-05-06 23:38 | 35.87898 | -78.79020 | 398 ft | 0 kts | 43° |
| 2026-05-06 23:38 | 35.87901 | -78.79016 | 400 ft | 4 kts | 42° |
| 2026-05-06 23:38 | 35.87946 | -78.78975 | 405 ft | 9 kts | 32° |
| 2026-05-06 23:39 | 35.88016 | -78.78977 | 395 ft | 12 kts | 325° |
| 2026-05-06 23:39 | 35.88043 | -78.79006 | 392 ft | 2 kts | 316° |
| 2026-05-06 23:39 | 35.88071 | -78.79039 | 395 ft | 9 kts | 321° |
| 2026-05-06 23:39 | 35.88119 | -78.79047 | 395 ft | 7 kts | 28° |
| 2026-05-06 23:40 | 35.88109 | -78.78972 | 394 ft | 11 kts | 130° |
| 2026-05-06 23:40 | 35.88035 | -78.78876 | 396 ft | 16 kts | 135° |
| 2026-05-06 23:40 | 35.87947 | -78.78785 | 406 ft | 14 kts | 153° |
| 2026-05-06 23:40 | 35.87855 | -78.78746 | 415 ft | 14 kts | 156° |
| 2026-05-06 23:41 | 35.87778 | -78.78674 | 425 ft | 17 kts | 137° |
| 2026-05-06 23:41 | 35.87736 | -78.78624 | 428 ft | 0 kts | 135° |
| 2026-05-06 23:42 | 35.87736 | -78.78623 | 428 ft | 0 kts | 135° |
| 2026-05-06 23:42 | 35.87706 | -78.78586 | 430 ft | 13 kts | 135° |
| 2026-05-06 23:43 | 35.87651 | -78.78495 | 428 ft | 11 kts | 97° |
| 2026-05-06 23:43 | 35.87668 | -78.78448 | 431 ft | 12 kts | 55° |
| 2026-05-06 23:43 | 35.87753 | -78.78335 | 424 ft | 20 kts | 46° |
| 2026-05-06 23:43 | 35.87869 | -78.78191 | 426 ft | 27 kts | 45° |
| 2026-05-06 23:44 | 35.87926 | -78.78120 | 427 ft | 2 kts | 45° |
| 2026-05-06 23:44 | 35.87950 | -78.78090 | 436 ft | 0 kts | 49° |
| 2026-05-06 23:44 | 35.87956 | -78.78079 | 431 ft | 6 kts | 59° |
| 2026-05-06 23:44 | 35.87959 | -78.78069 | 433 ft | 0 kts | 71° |
| 2026-05-06 23:45 | 35.87960 | -78.78065 | 434 ft | 0 kts | 71° |
| 2026-05-06 23:45 | 35.87961 | -78.78049 | 447 ft | 6 kts | 88° |
| 2026-05-06 23:45 | 35.87915 | -78.77992 | 447 ft | 11 kts | 168° |
| 2026-05-06 23:45 | 35.87850 | -78.78030 | 432 ft | 4 kts | 223° |
| 2026-05-06 23:46 | 35.87741 | -78.78163 | 433 ft | 48 kts | 224° |
| 2026-05-06 23:46 | 35.87313 | -78.78688 | 421 ft | 126 kts | 225° |
| 2026-05-06 23:46 | 35.86548 | -78.79646 | 653 ft | 171 kts | 226° |
| 2026-05-06 23:46 | 35.85745 | -78.80646 | 1724 ft | 160 kts | 226° |
| 2026-05-06 23:47 | 35.84923 | -78.81678 | 2138 ft | 183 kts | 225° |
| 2026-05-06 23:47 | 35.83964 | -78.82877 | 2424 ft | 207 kts | 221° |
| 2026-05-06 23:47 | 35.82605 | -78.83533 | 2932 ft | 209 kts | 184° |
| 2026-05-06 23:47 | 35.81125 | -78.83730 | 3387 ft | 226 kts | 198° |
| 2026-05-06 23:48 | 35.79719 | -78.84776 | 3612 ft | 250 kts | 221° |
| 2026-05-06 23:48 | 35.78429 | -78.86293 | 4251 ft | 260 kts | 225° |
| 2026-05-06 23:48 | 35.77141 | -78.87897 | 5025 ft | 266 kts | 226° |
| 2026-05-06 23:48 | 35.75835 | -78.89532 | 5756 ft | 268 kts | 226° |
| 2026-05-06 23:49 | 35.74524 | -78.91181 | 6060 ft | 271 kts | 226° |
| 2026-05-06 23:49 | 35.73213 | -78.92835 | 6041 ft | 272 kts | 226° |
| 2026-05-06 23:49 | 35.71896 | -78.94500 | 6130 ft | 273 kts | 226° |
| 2026-05-06 23:49 | 35.70567 | -78.96183 | 6891 ft | 275 kts | 226° |
| 2026-05-06 23:50 | 35.69206 | -78.97829 | 7661 ft | 274 kts | 218° |
| 2026-05-06 23:50 | 35.65686 | -78.99888 | 8979 ft | 283 kts | 201° |
| 2026-05-06 23:50 | 35.63805 | -79.00578 | 9590 ft | 285 kts | 184° |
| 2026-05-06 23:51 | 35.61878 | -79.00129 | 10164 ft | 290 kts | 155° |
| 2026-05-06 23:51 | 35.60041 | -78.98864 | 10468 ft | 312 kts | 148° |
| 2026-05-06 23:51 | 35.58163 | -78.97371 | 10911 ft | 328 kts | 147° |
| 2026-05-06 23:51 | 35.56200 | -78.95856 | 11640 ft | 336 kts | 149° |
| 2026-05-06 23:52 | 35.54176 | -78.94388 | 12056 ft | 340 kts | 150° |
| 2026-05-06 23:52 | 35.52119 | -78.92988 | 12038 ft | 342 kts | 152° |
| 2026-05-06 23:52 | 35.50016 | -78.91631 | 12041 ft | 340 kts | 153° |
| 2026-05-06 23:52 | 35.47908 | -78.90320 | 12039 ft | 339 kts | 154° |
| 2026-05-06 23:53 | 35.45788 | -78.89035 | 12235 ft | 343 kts | 154° |
| 2026-05-06 23:53 | 35.43633 | -78.87749 | 13263 ft | 346 kts | 154° |
| 2026-05-06 23:53 | 35.41455 | -78.86459 | 14341 ft | 348 kts | 154° |
| 2026-05-06 23:53 | 35.39251 | -78.85161 | 15341 ft | 353 kts | 154° |
| 2026-05-06 23:54 | 35.37019 | -78.83852 | 16236 ft | 359 kts | 155° |
| 2026-05-06 23:54 | 35.34748 | -78.82522 | 17133 ft | 364 kts | 155° |
| 2026-05-06 23:54 | 35.32443 | -78.81175 | 17996 ft | 369 kts | 155° |
| 2026-05-06 23:54 | 35.30112 | -78.79814 | 18864 ft | 374 kts | 155° |
| 2026-05-06 23:55 | 35.27742 | -78.78431 | 19698 ft | 379 kts | 155° |
| 2026-05-06 23:55 | 35.25352 | -78.77037 | 20521 ft | 383 kts | 155° |
| 2026-05-06 23:55 | 35.22956 | -78.75641 | 21316 ft | 388 kts | 155° |
| 2026-05-06 23:55 | 35.20499 | -78.74210 | 22102 ft | 393 kts | 155° |
| 2026-05-06 23:56 | 35.18018 | -78.72766 | 22868 ft | 397 kts | 155° |
| 2026-05-06 23:56 | 35.15503 | -78.71303 | 23612 ft | 402 kts | 155° |
| 2026-05-06 23:56 | 35.12962 | -78.69827 | 24332 ft | 407 kts | 155° |
| 2026-05-06 23:56 | 35.10388 | -78.68332 | 25041 ft | 411 kts | 155° |
| 2026-05-06 23:57 | 35.07812 | -78.66836 | 25722 ft | 416 kts | 155° |
| 2026-05-06 23:57 | 35.05184 | -78.65312 | 26386 ft | 420 kts | 155° |
| 2026-05-06 23:57 | 35.02525 | -78.63771 | 27029 ft | 424 kts | 155° |
| 2026-05-06 23:57 | 34.99844 | -78.62219 | 27635 ft | 428 kts | 155° |
| 2026-05-06 23:58 | 34.97133 | -78.60650 | 28214 ft | 432 kts | 155° |
| 2026-05-06 23:58 | 34.94402 | -78.59070 | 28771 ft | 436 kts | 155° |
| 2026-05-06 23:58 | 34.91683 | -78.57499 | 29295 ft | 440 kts | 155° |
| 2026-05-06 23:58 | 34.88905 | -78.55895 | 29799 ft | 443 kts | 155° |
| 2026-05-06 23:59 | 34.86097 | -78.54275 | 30283 ft | 447 kts | 155° |
| 2026-05-06 23:59 | 34.83270 | -78.52645 | 30749 ft | 450 kts | 155° |
| 2026-05-06 23:59 | 34.80460 | -78.51026 | 31179 ft | 453 kts | 155° |
| 2026-05-06 23:59 | 34.77598 | -78.49379 | 31602 ft | 456 kts | 155° |
| 2026-05-07 00:00 | 34.74717 | -78.47721 | 32001 ft | 459 kts | 155° |
| 2026-05-07 00:00 | 34.71819 | -78.46056 | 32385 ft | 462 kts | 155° |
| 2026-05-07 00:00 | 34.68902 | -78.44381 | 32754 ft | 465 kts | 155° |
| 2026-05-07 00:00 | 34.65965 | -78.42695 | 33106 ft | 468 kts | 155° |
| 2026-05-07 00:01 | 34.63010 | -78.41001 | 33449 ft | 470 kts | 155° |
| 2026-05-07 00:01 | 34.60077 | -78.39320 | 33768 ft | 472 kts | 155° |
| 2026-05-07 00:01 | 34.57061 | -78.37593 | 34091 ft | 475 kts | 155° |
| 2026-05-07 00:01 | 34.54068 | -78.35881 | 34388 ft | 477 kts | 155° |
| 2026-05-07 00:02 | 34.51092 | -78.34179 | 34676 ft | 479 kts | 155° |
| 2026-05-07 00:02 | 34.48064 | -78.32450 | 35021 ft | 479 kts | 155° |
| 2026-05-07 00:02 | 34.45052 | -78.30731 | 35432 ft | 478 kts | 155° |
| 2026-05-07 00:02 | 34.42049 | -78.29019 | 35845 ft | 476 kts | 155° |
| 2026-05-07 00:03 | 34.39052 | -78.27312 | 36228 ft | 475 kts | 155° |
| 2026-05-07 00:03 | 34.36060 | -78.25608 | 36544 ft | 475 kts | 155° |
| 2026-05-07 00:03 | 34.33066 | -78.23905 | 36854 ft | 476 kts | 155° |
| 2026-05-07 00:03 | 34.30061 | -78.22197 | 37161 ft | 476 kts | 155° |
| 2026-05-07 00:04 | 34.27064 | -78.20494 | 37481 ft | 476 kts | 155° |
| 2026-05-07 00:04 | 34.24067 | -78.18793 | 37777 ft | 476 kts | 155° |
| 2026-05-07 00:04 | 34.21069 | -78.17093 | 38067 ft | 476 kts | 155° |
| 2026-05-07 00:04 | 34.18070 | -78.15394 | 38350 ft | 476 kts | 155° |
| 2026-05-07 00:05 | 34.15072 | -78.13696 | 38630 ft | 476 kts | 155° |
| 2026-05-07 00:05 | 34.12083 | -78.12005 | 38903 ft | 476 kts | 155° |
| 2026-05-07 00:05 | 34.09075 | -78.10304 | 39169 ft | 476 kts | 155° |
| 2026-05-07 00:05 | 34.06115 | -78.08632 | 39425 ft | 476 kts | 155° |
| 2026-05-07 00:06 | 34.03119 | -78.06941 | 39669 ft | 476 kts | 155° |
| 2026-05-07 00:06 | 34.00111 | -78.05244 | 39897 ft | 477 kts | 155° |
| 2026-05-07 00:06 | 33.94071 | -78.01841 | 39993 ft | 479 kts | 155° |
| 2026-05-07 00:07 | 33.87899 | -77.98967 | 40003 ft | 474 kts | 166° |
| 2026-05-07 00:07 | 33.81400 | -77.97661 | 40003 ft | 473 kts | 176° |
| 2026-05-07 00:08 | 33.74855 | -77.97248 | 40004 ft | 473 kts | 178° |
| 2026-05-07 00:08 | 33.68253 | -77.96877 | 40004 ft | 474 kts | 177° |
| 2026-05-07 00:09 | 33.61648 | -77.96465 | 40001 ft | 475 kts | 177° |